Time;durP1;ratioP1;P1;durP2;ratioP2;P2;SDS_P1;SDS_P2;PMS_P1;PMS_P2;Temp;Humidity;BMP_temperature;BMP_pressure;BME280_temperature;BME280_humidity;BME280_pressure;Samples;Min_cycle;Max_cycle;Signal;HPM_P1;HPM_P2
2021/01/14 00:02:04;;;;;;;2.58;1.33;;;2.50;99.90;;;;;;5075280;28;20241;-73
2021/01/14 00:04:30;;;;;;;2.10;1.88;;;2.50;99.90;;;;;;5074358;28;20553;-73
2021/01/14 00:06:57;;;;;;;6.73;1.83;;;2.50;99.90;;;;;;5066552;28;20195;-73
2021/01/14 00:09:22;;;;;;;2.65;2.10;;;2.50;99.90;;;;;;5073784;28;20174;-73
2021/01/14 00:11:49;;;;;;;3.23;1.80;;;2.50;99.90;;;;;;5063883;28;20716;-73
2021/01/14 00:14:15;;;;;;;2.58;1.92;;;2.50;99.90;;;;;;5070439;28;20439;-74
2021/01/14 00:16:40;;;;;;;4.90;2.53;;;2.50;99.90;;;;;;5070030;28;20603;-73
2021/01/14 00:19:06;;;;;;;4.47;2.30;;;2.50;99.90;;;;;;5074984;28;20189;-73
2021/01/14 00:21:37;;;;;;;2.70;2.17;;;2.50;99.90;;;;;;5070058;28;20650;-74
2021/01/14 00:24:03;;;;;;;2.05;1.88;;;2.50;99.90;;;;;;5075099;28;20186;-73
2021/01/14 00:26:28;;;;;;;2.03;1.80;;;2.50;99.90;;;;;;5064301;28;20265;-73
2021/01/14 00:28:54;;;;;;;1.47;1.33;;;2.50;99.90;;;;;;5070482;28;20191;-73
2021/01/14 00:31:20;;;;;;;2.40;1.30;;;2.40;99.90;;;;;;5074905;28;20281;-74
2021/01/14 00:33:46;;;;;;;2.88;1.85;;;2.40;99.90;;;;;;5074855;28;20178;-73
2021/01/14 00:36:11;;;;;;;2.30;1.73;;;2.40;99.90;;;;;;5070489;28;20208;-74
2021/01/14 00:38:37;;;;;;;1.67;1.50;;;2.40;99.90;;;;;;5054834;28;20190;-73
2021/01/14 00:41:02;;;;;;;1.77;1.47;;;2.40;99.90;;;;;;5069896;28;20327;-73
2021/01/14 00:43:31;;;;;;;1.00;1.00;;;2.40;99.90;;;;;;5074717;28;20192;-73
2021/01/14 00:45:56;;;;;;;1.33;1.15;;;2.40;99.90;;;;;;5072212;28;20273;-73
2021/01/14 00:48:22;;;;;;;1.20;1.10;;;2.40;99.90;;;;;;5073843;28;20693;-73
2021/01/14 00:50:49;;;;;;;0.67;0.67;;;2.40;99.90;;;;;;5070111;28;20216;-73
2021/01/14 00:53:15;;;;;;;1.17;0.75;;;2.50;99.90;;;;;;5059738;28;20689;-73
2021/01/14 00:55:40;;;;;;;0.97;0.90;;;2.50;99.90;;;;;;5064679;28;20177;-73
2021/01/14 00:58:06;;;;;;;1.20;1.10;;;2.50;99.90;;;;;;5069135;28;20217;-73
2021/01/14 01:00:31;;;;;;;1.53;1.00;;;2.50;99.90;;;;;;5061621;28;20182;-73
2021/01/14 01:02:57;;;;;;;1.10;1.00;;;2.50;99.90;;;;;;5073961;28;20186;-73
2021/01/14 01:05:22;;;;;;;0.90;0.83;;;2.50;99.90;;;;;;5074546;28;20504;-73
2021/01/14 01:07:57;;;;;;;1.00;0.90;;;2.50;99.90;;;;;;5071953;28;20210;-74
2021/01/14 01:10:23;;;;;;;1.08;0.93;;;2.50;99.90;;;;;;5069193;28;20182;-73
2021/01/14 01:12:53;;;;;;;1.73;1.02;;;2.50;99.90;;;;;;5072302;28;20186;-73
2021/01/14 01:15:18;;;;;;;0.90;0.80;;;2.50;99.90;;;;;;5071161;28;20193;-73
2021/01/14 01:17:44;;;;;;;1.43;1.20;;;2.50;99.90;;;;;;5067028;28;20312;-73
2021/01/14 01:20:10;;;;;;;2.20;1.70;;;2.60;99.90;;;;;;5073889;28;20695;-73
2021/01/14 01:22:36;;;;;;;1.85;1.25;;;2.60;99.90;;;;;;5071252;28;20243;-73
2021/01/14 01:25:01;;;;;;;1.30;1.20;;;2.60;99.90;;;;;;5069572;28;20187;-73
2021/01/14 01:27:27;;;;;;;2.10;1.33;;;2.60;99.90;;;;;;5062549;28;20235;-73
2021/01/14 01:29:52;;;;;;;0.97;0.90;;;2.60;99.90;;;;;;5069087;28;20192;-73
2021/01/14 01:32:18;;;;;;;2.70;1.57;;;2.60;99.90;;;;;;5073585;28;20432;-73
2021/01/14 01:34:43;;;;;;;1.50;1.30;;;2.60;99.90;;;;;;5073555;28;20261;-73
2021/01/14 01:37:09;;;;;;;1.33;1.10;;;2.60;99.90;;;;;;5068933;28;20581;-73
2021/01/14 01:39:34;;;;;;;1.30;1.20;;;2.60;99.90;;;;;;5065994;28;20186;-74
2021/01/14 01:42:00;;;;;;;1.37;1.27;;;2.60;99.90;;;;;;5069727;28;20652;-73
2021/01/14 01:44:26;;;;;;;2.17;1.97;;;2.60;99.90;;;;;;5071894;28;20264;-73
2021/01/14 01:47:06;;;;;;;1.60;1.27;;;2.60;99.90;;;;;;5069417;28;20181;-73
2021/01/14 01:49:34;;;;;;;1.23;1.15;;;2.60;99.90;;;;;;5060054;28;20182;-73
2021/01/14 01:52:02;;;;;;;1.30;1.20;;;2.60;99.90;;;;;;5070893;28;20575;-73
2021/01/14 01:54:27;;;;;;;1.60;1.20;;;2.60;99.90;;;;;;5053450;28;20171;-73
2021/01/14 01:56:53;;;;;;;2.17;1.40;;;2.60;99.90;;;;;;5065618;28;20217;-73
2021/01/14 01:59:20;;;;;;;1.88;1.25;;;2.60;99.90;;;;;;5067304;28;20182;-73
2021/01/14 02:01:45;;;;;;;2.25;2.05;;;2.60;99.90;;;;;;5072699;28;20233;-73
2021/01/14 02:04:11;;;;;;;2.30;1.63;;;2.60;99.90;;;;;;5073026;28;20190;-74
2021/01/14 02:06:50;;;;;;;1.80;1.30;;;2.60;99.90;;;;;;5068527;28;20211;-73
2021/01/14 02:09:18;;;;;;;1.95;1.60;;;2.60;99.90;;;;;;5073167;28;20181;-73
2021/01/14 02:11:50;;;;;;;2.85;1.58;;;2.60;99.90;;;;;;5070934;28;20536;-73
2021/01/14 02:14:29;;;;;;;1.80;1.55;;;2.60;99.90;;;;;;5063916;28;20562;-73
2021/01/14 02:16:55;;;;;;;1.60;1.33;;;2.60;99.90;;;;;;5053035;28;20313;-73
2021/01/14 02:19:37;;;;;;;2.10;1.60;;;2.60;99.90;;;;;;5067194;28;20268;-73
2021/01/14 02:22:11;;;;;;;1.65;1.55;;;2.60;99.90;;;;;;5070945;28;20451;-73
2021/01/14 02:24:41;;;;;;;2.00;1.60;;;2.60;99.90;;;;;;5059721;28;20244;-73
2021/01/14 02:27:09;;;;;;;2.15;1.75;;;2.60;99.90;;;;;;5066729;28;20190;-73
2021/01/14 02:29:36;;;;;;;1.60;1.50;;;2.50;99.90;;;;;;5064986;28;20190;-73
2021/01/14 02:32:02;;;;;;;1.50;1.40;;;2.50;99.90;;;;;;5067065;28;20607;-74
2021/01/14 02:34:28;;;;;;;2.80;1.58;;;2.60;99.90;;;;;;5067929;28;20178;-73
2021/01/14 02:36:53;;;;;;;1.90;1.70;;;2.60;99.90;;;;;;5061851;28;20263;-73
2021/01/14 02:39:19;;;;;;;1.50;1.40;;;2.60;99.90;;;;;;5072087;28;20197;-73
2021/01/14 02:41:44;;;;;;;2.23;1.70;;;2.60;99.90;;;;;;5067704;28;20186;-73
2021/01/14 02:44:10;;;;;;;1.53;1.37;;;2.50;99.90;;;;;;5070816;28;20232;-73
2021/01/14 02:46:36;;;;;;;2.40;1.80;;;2.60;99.90;;;;;;5058116;28;20178;-74
2021/01/14 02:49:07;;;;;;;1.77;1.67;;;2.60;99.90;;;;;;5072458;28;20633;-74
2021/01/14 02:51:47;;;;;;;2.85;1.92;;;2.60;99.90;;;;;;5070960;28;20215;-73
2021/01/14 02:54:14;;;;;;;2.58;1.58;;;2.60;99.90;;;;;;5071052;28;20170;-73
2021/01/14 02:56:41;;;;;;;1.65;1.42;;;2.50;99.90;;;;;;5065539;28;20217;-73
2021/01/14 02:59:07;;;;;;;2.13;1.88;;;2.60;99.90;;;;;;5059230;28;20539;-74
2021/01/14 03:01:33;;;;;;;1.40;1.30;;;2.60;99.90;;;;;;5068976;28;20251;-74
2021/01/14 03:03:59;;;;;;;1.90;1.50;;;2.60;99.90;;;;;;5072218;28;20273;-73
2021/01/14 03:06:24;;;;;;;2.53;1.50;;;2.60;99.90;;;;;;5067673;28;20441;-73
2021/01/14 03:08:50;;;;;;;1.30;1.20;;;2.60;99.90;;;;;;5070888;28;20433;-73
2021/01/14 03:11:16;;;;;;;1.73;1.57;;;2.60;99.90;;;;;;5059198;28;20206;-73
2021/01/14 03:13:42;;;;;;;1.88;1.20;;;2.60;99.90;;;;;;5071754;28;20268;-74
2021/01/14 03:16:08;;;;;;;1.40;1.30;;;2.50;99.90;;;;;;5070111;28;20411;-74
2021/01/14 03:18:33;;;;;;;1.57;1.47;;;2.50;99.90;;;;;;5068120;28;20432;-73
2021/01/14 03:21:27;;;;;;;2.10;1.90;;;2.60;99.90;;;;;;5071788;28;20178;-74
2021/01/14 03:23:53;;;;;;;2.17;1.80;;;2.60;99.90;;;;;;5070767;28;20636;-73
2021/01/14 03:26:20;;;;;;;3.05;2.33;;;2.50;99.90;;;;;;5071874;28;20215;-73
2021/01/14 03:28:46;;;;;;;3.67;2.83;;;2.50;99.90;;;;;;5076393;28;20276;-73
2021/01/14 03:31:13;;;;;;;2.38;2.08;;;2.50;99.90;;;;;;5071415;28;20186;-74
2021/01/14 03:33:40;;;;;;;2.65;1.90;;;2.50;99.90;;;;;;5075896;28;20526;-73
2021/01/14 03:36:07;;;;;;;2.87;2.13;;;2.50;99.90;;;;;;5072512;28;20174;-73
2021/01/14 03:38:35;;;;;;;3.33;1.77;;;2.50;99.90;;;;;;5074358;28;20629;-73
2021/01/14 03:41:01;;;;;;;1.35;1.25;;;2.50;99.90;;;;;;5069525;28;20179;-73
2021/01/14 03:43:26;;;;;;;2.00;1.40;;;2.50;99.90;;;;;;5076060;28;20200;-73
2021/01/14 03:45:52;;;;;;;1.90;1.80;;;2.50;99.90;;;;;;5066630;28;20194;-73
2021/01/14 03:48:17;;;;;;;1.73;1.50;;;2.40;99.90;;;;;;5055951;28;20186;-73
2021/01/14 03:50:43;;;;;;;1.57;1.30;;;2.40;99.90;;;;;;5064282;28;20186;-73
2021/01/14 03:53:08;;;;;;;2.00;1.70;;;2.40;99.90;;;;;;5071300;28;20700;-73
2021/01/14 03:55:34;;;;;;;3.63;1.50;;;2.30;99.90;;;;;;5073495;28;20190;-73
2021/01/14 03:58:00;;;;;;;1.60;1.50;;;2.30;99.90;;;;;;5070755;28;20256;-73
2021/01/14 04:00:25;;;;;;;2.17;1.90;;;2.30;99.90;;;;;;5065970;28;20244;-74
2021/01/14 04:02:51;;;;;;;2.00;1.70;;;2.20;99.90;;;;;;5072491;28;20189;-73
2021/01/14 04:05:16;;;;;;;2.30;2.00;;;2.20;99.90;;;;;;5080553;28;20227;-73
2021/01/14 04:07:43;;;;;;;2.03;1.60;;;2.20;99.90;;;;;;5071034;28;20552;-73
2021/01/14 04:10:09;;;;;;;2.17;1.98;;;2.20;99.90;;;;;;5073135;28;20186;-74
2021/01/14 04:12:34;;;;;;;1.80;1.50;;;2.10;99.90;;;;;;5065429;28;20641;-73
2021/01/14 04:15:00;;;;;;;5.70;2.40;;;2.10;99.90;;;;;;5068418;28;20434;-73
2021/01/14 04:17:26;;;;;;;3.03;2.00;;;2.10;99.90;;;;;;5075184;28;20271;-73
2021/01/14 04:19:52;;;;;;;3.10;2.15;;;2.10;99.90;;;;;;5071067;28;20197;-73
2021/01/14 04:22:18;;;;;;;3.50;2.20;;;2.10;99.90;;;;;;5066795;28;20191;-73
2021/01/14 04:24:43;;;;;;;2.50;2.27;;;2.00;99.90;;;;;;5073205;28;20929;-73
2021/01/14 04:27:09;;;;;;;3.10;2.20;;;2.10;99.90;;;;;;5073171;28;20253;-73
2021/01/14 04:29:34;;;;;;;3.70;2.17;;;2.10;99.90;;;;;;5070628;28;20629;-73
2021/01/14 04:32:00;;;;;;;4.47;2.53;;;2.10;99.90;;;;;;5084734;28;20192;-73
2021/01/14 04:34:26;;;;;;;4.27;2.20;;;2.00;99.90;;;;;;5092798;28;20184;-73
2021/01/14 04:37:01;;;;;;;3.03;2.50;;;2.00;99.90;;;;;;5069231;28;20206;-73
2021/01/14 04:39:28;;;;;;;3.30;3.00;;;2.00;99.90;;;;;;5073255;28;20193;-73
2021/01/14 04:41:59;;;;;;;3.75;2.80;;;2.00;99.90;;;;;;5055575;28;20178;-73
2021/01/14 04:44:26;;;;;;;4.20;2.65;;;2.00;99.90;;;;;;5065450;28;20186;-73
2021/01/14 04:47:07;;;;;;;3.25;2.53;;;2.00;99.90;;;;;;5073251;28;20185;-73
2021/01/14 04:49:33;;;;;;;7.63;3.50;;;2.00;99.90;;;;;;5069784;28;20178;-74
2021/01/14 04:52:04;;;;;;;3.42;2.67;;;2.00;99.90;;;;;;5057313;28;20244;-73
2021/01/14 04:54:35;;;;;;;4.03;3.00;;;2.00;99.90;;;;;;5063292;28;20287;-74
2021/01/14 04:57:18;;;;;;;3.75;2.70;;;2.00;99.90;;;;;;5074278;28;20296;-73
2021/01/14 04:59:53;;;;;;;4.43;2.97;;;2.00;99.90;;;;;;5069994;28;20197;-74
2021/01/14 05:02:24;;;;;;;4.32;2.85;;;2.00;99.90;;;;;;5074270;28;20225;-74
2021/01/14 05:04:51;;;;;;;4.00;2.90;;;2.00;99.90;;;;;;5074169;28;20192;-74
2021/01/14 05:07:31;;;;;;;3.15;2.75;;;2.00;99.90;;;;;;5068010;28;20666;-74
2021/01/14 05:10:03;;;;;;;4.70;3.45;;;2.00;99.90;;;;;;5060685;28;20254;-74
2021/01/14 05:12:32;;;;;;;4.13;3.17;;;2.00;99.90;;;;;;5072729;28;20672;-74
2021/01/14 05:15:00;;;;;;;4.63;3.30;;;2.00;99.90;;;;;;5068954;28;20194;-74
2021/01/14 05:17:27;;;;;;;5.10;3.30;;;2.00;99.90;;;;;;5067363;28;20271;-74
2021/01/14 05:19:56;;;;;;;4.03;3.25;;;2.00;99.90;;;;;;5054151;28;20522;-73
2021/01/14 05:22:24;;;;;;;7.32;3.50;;;2.00;99.90;;;;;;5057933;28;20216;-74
2021/01/14 05:25:07;;;;;;;4.60;3.05;;;2.00;99.90;;;;;;5069196;28;20536;-74
2021/01/14 05:27:33;;;;;;;4.47;3.45;;;2.00;99.90;;;;;;5074048;28;20559;-74
2021/01/14 05:30:04;;;;;;;6.47;3.80;;;2.00;99.90;;;;;;5068254;28;20650;-74
2021/01/14 05:32:41;;;;;;;4.75;3.50;;;2.00;99.90;;;;;;5067433;28;20559;-74
2021/01/14 05:35:14;;;;;;;11.80;4.75;;;2.00;99.90;;;;;;5073581;28;20235;-74
2021/01/14 05:37:42;;;;;;;6.03;3.42;;;2.00;99.90;;;;;;5069754;28;20237;-74
2021/01/14 05:40:08;;;;;;;5.47;3.95;;;2.00;99.90;;;;;;5069328;28;20178;-74
2021/01/14 05:42:34;;;;;;;5.93;4.25;;;2.00;99.90;;;;;;5073135;28;20190;-74
2021/01/14 05:45:00;;;;;;;7.00;4.77;;;2.00;99.90;;;;;;5069101;28;20200;-74
2021/01/14 05:47:28;;;;;;;6.67;4.20;;;2.00;99.90;;;;;;5073634;28;20269;-74
2021/01/14 05:50:02;;;;;;;7.97;4.85;;;2.00;99.90;;;;;;5066795;28;20972;-74
2021/01/14 05:52:29;;;;;;;8.45;4.40;;;2.00;99.90;;;;;;5062404;28;20521;-74
2021/01/14 05:55:15;;;;;;;5.47;4.47;;;2.00;99.90;;;;;;5064733;28;20182;-74
2021/01/14 05:57:59;;;;;;;4.50;3.75;;;2.00;99.90;;;;;;5060758;28;20217;-74
2021/01/14 06:00:33;;;;;;;4.72;3.97;;;2.00;99.90;;;;;;5067411;28;20708;-74
2021/01/14 06:02:59;;;;;;;7.55;3.83;;;2.00;99.90;;;;;;5073565;28;20655;-74
2021/01/14 06:05:28;;;;;;;6.27;4.23;;;2.00;99.90;;;;;;5072651;28;20235;-74
2021/01/14 06:07:54;;;;;;;12.90;4.15;;;2.00;99.90;;;;;;5068679;28;20189;-75
2021/01/14 06:10:30;;;;;;;4.63;3.33;;;2.00;99.90;;;;;;5071411;28;20587;-76
2021/01/14 06:12:55;;;;;;;5.90;3.60;;;2.00;99.90;;;;;;5070362;28;20230;-75
2021/01/14 06:15:21;;;;;;;6.10;4.00;;;2.00;99.90;;;;;;5069547;28;20182;-75
2021/01/14 06:17:48;;;;;;;4.30;3.60;;;2.00;99.90;;;;;;5073016;28;20221;-74
2021/01/14 06:20:14;;;;;;;5.75;3.92;;;2.00;99.90;;;;;;5068391;28;20235;-75
2021/01/14 06:22:43;;;;;;;5.80;4.90;;;2.00;99.90;;;;;;5069378;28;20543;-74
2021/01/14 06:25:08;;;;;;;7.53;5.70;;;2.00;99.90;;;;;;5063909;28;20536;-74
2021/01/14 06:27:34;;;;;;;5.10;4.60;;;2.00;99.90;;;;;;5072642;28;20186;-75
2021/01/14 06:30:06;;;;;;;8.13;4.73;;;2.10;99.90;;;;;;5065469;28;20925;-75
2021/01/14 06:32:33;;;;;;;5.50;4.97;;;2.10;99.90;;;;;;5086094;28;20195;-75
2021/01/14 06:35:00;;;;;;;5.35;4.85;;;2.10;99.90;;;;;;5083211;28;20178;-75
2021/01/14 06:37:27;;;;;;;7.80;5.78;;;2.10;99.90;;;;;;5065282;28;20217;-75
2021/01/14 06:39:55;;;;;;;7.13;5.05;;;2.10;99.90;;;;;;5068169;28;20185;-75
2021/01/14 06:42:26;;;;;;;7.18;6.00;;;2.10;99.90;;;;;;5068673;28;20190;-75
2021/01/14 06:45:00;;;;;;;7.13;5.63;;;2.10;99.90;;;;;;5072358;28;20196;-74
2021/01/14 06:47:34;;;;;;;7.13;5.03;;;2.10;99.90;;;;;;5076269;28;20361;-75
2021/01/14 06:50:14;;;;;;;6.82;4.85;;;2.10;99.90;;;;;;5067901;28;20201;-75
2021/01/14 06:52:47;;;;;;;4.85;4.25;;;2.10;99.90;;;;;;5070796;28;20189;-75
2021/01/14 06:55:20;;;;;;;5.03;4.50;;;2.10;99.90;;;;;;5068710;28;20182;-75
2021/01/14 06:57:54;;;;;;;6.53;4.93;;;2.10;99.90;;;;;;5067546;28;20220;-74
2021/01/14 07:00:22;;;;;;;9.07;6.63;;;2.10;99.90;;;;;;5059002;28;20194;-76
2021/01/14 07:03:15;;;;;;;9.93;6.35;;;2.00;99.90;;;;;;5059566;28;20188;-75
2021/01/14 07:05:56;;;;;;;12.20;7.03;;;2.10;99.90;;;;;;5071418;28;20177;-75
2021/01/14 07:08:31;;;;;;;10.30;5.97;;;2.10;99.90;;;;;;5057741;28;20205;-75
2021/01/14 07:10:59;;;;;;;8.00;6.13;;;2.10;99.90;;;;;;5065242;28;20193;-75
2021/01/14 07:13:42;;;;;;;6.75;5.07;;;2.10;99.90;;;;;;5070137;28;20582;-75
2021/01/14 07:16:12;;;;;;;5.45;4.32;;;2.10;99.90;;;;;;5061558;28;20178;-75
2021/01/14 07:18:38;;;;;;;11.13;8.75;;;2.10;99.90;;;;;;5067516;28;20251;-75
2021/01/14 07:21:42;;;;;;;10.07;5.97;;;2.10;99.90;;;;;;5058919;28;20264;-74
2021/01/14 07:24:24;;;;;;;5.25;4.15;;;2.10;99.90;;;;;;5091330;28;20638;-75
2021/01/14 07:26:57;;;;;;;6.15;4.68;;;2.10;99.90;;;;;;5072076;28;20185;-74
2021/01/14 07:29:26;;;;;;;8.38;5.07;;;2.10;99.90;;;;;;5065894;28;20713;-75
2021/01/14 07:31:54;;;;;;;5.90;4.60;;;2.10;99.90;;;;;;5068497;28;20217;-74
2021/01/14 07:34:43;;;;;;;8.18;4.70;;;2.10;99.90;;;;;;5071085;28;20192;-74
2021/01/14 07:37:14;;;;;;;5.88;4.72;;;2.10;99.90;;;;;;5070714;28;20259;-75
2021/01/14 07:39:51;;;;;;;5.85;4.10;;;2.10;99.90;;;;;;5066866;28;20190;-74
2021/01/14 07:42:30;;;;;;;5.53;4.63;;;2.10;99.90;;;;;;5061764;28;20543;-75
2021/01/14 07:45:29;;;;;;;10.13;5.35;;;2.10;99.90;;;;;;5066686;28;20187;-75
2021/01/14 07:47:56;;;;;;;6.55;4.93;;;2.10;99.90;;;;;;5055873;28;20209;-74
2021/01/14 07:50:26;;;;;;;5.63;4.28;;;2.10;99.90;;;;;;5063742;28;20705;-75
2021/01/14 07:52:56;;;;;;;8.70;4.03;;;2.10;99.90;;;;;;5061969;28;20269;-74
2021/01/14 07:55:35;;;;;;;6.63;4.75;;;2.10;99.90;;;;;;5069262;28;20186;-74
2021/01/14 07:58:14;;;;;;;5.80;4.10;;;2.10;99.90;;;;;;5066843;28;20213;-75
2021/01/14 08:00:40;;;;;;;7.10;4.63;;;2.10;99.90;;;;;;5058769;28;20222;-75
2021/01/14 08:03:05;;;;;;;8.50;5.33;;;2.10;99.90;;;;;;5066309;28;20200;-75
2021/01/14 08:05:40;;;;;;;9.97;5.20;;;2.10;99.90;;;;;;5071572;28;20503;-75
2021/01/14 08:08:37;;;;;;;6.03;4.20;;;2.00;99.90;;;;;;5068150;28;20186;-75
2021/01/14 08:11:18;;;;;;;6.13;4.15;;;2.10;99.90;;;;;;5070166;28;20185;-74
2021/01/14 08:14:00;;;;;;;6.55;5.03;;;2.10;99.90;;;;;;5073551;28;20657;-75
2021/01/14 08:16:42;;;;;;;5.80;5.15;;;2.10;99.90;;;;;;5055257;28;20183;-75
2021/01/14 08:19:27;;;;;;;5.38;4.88;;;2.10;99.90;;;;;;5057746;28;20209;-74
2021/01/14 08:21:58;;;;;;;9.75;5.35;;;2.10;99.90;;;;;;5069561;28;20181;-75
2021/01/14 08:24:39;;;;;;;6.55;4.47;;;2.10;99.90;;;;;;5072250;28;20198;-75
2021/01/14 08:27:25;;;;;;;6.20;4.50;;;2.20;99.90;;;;;;5067836;28;20186;-75
2021/01/14 08:30:17;;;;;;;5.13;4.50;;;2.10;99.90;;;;;;5066680;28;20210;-75
2021/01/14 08:32:58;;;;;;;5.35;4.57;;;2.20;99.90;;;;;;5065554;28;20276;-75
2021/01/14 08:35:28;;;;;;;8.70;5.18;;;2.10;99.90;;;;;;5067532;28;20235;-74
2021/01/14 08:38:00;;;;;;;4.53;4.13;;;2.10;99.90;;;;;;5069753;28;20233;-74
2021/01/14 08:40:31;;;;;;;7.70;4.25;;;2.10;99.90;;;;;;5063639;28;20183;-74
2021/01/14 08:43:13;;;;;;;5.88;4.53;;;2.20;99.90;;;;;;5071408;28;20539;-74
2021/01/14 08:45:53;;;;;;;7.40;4.60;;;2.20;99.90;;;;;;5071648;28;20261;-75
2021/01/14 08:48:22;;;;;;;6.95;4.97;;;2.20;99.90;;;;;;5073910;28;21608;-74
2021/01/14 08:50:56;;;;;;;5.53;3.90;;;2.10;99.90;;;;;;5069749;28;20185;-75
2021/01/14 08:53:33;;;;;;;4.75;3.60;;;2.10;99.90;;;;;;5073019;28;20536;-75
2021/01/14 08:56:18;;;;;;;4.35;3.70;;;2.10;99.90;;;;;;5071260;28;20188;-76
2021/01/14 08:58:47;;;;;;;5.15;3.72;;;2.10;99.90;;;;;;5068671;28;20190;-75
2021/01/14 09:01:23;;;;;;;4.00;3.65;;;2.10;99.90;;;;;;5073746;28;20237;-76
2021/01/14 09:03:50;;;;;;;5.82;3.20;;;2.10;99.90;;;;;;5074047;28;20668;-75
2021/01/14 09:06:26;;;;;;;3.90;3.03;;;2.10;99.90;;;;;;5073825;28;20182;-77
2021/01/14 09:08:53;;;;;;;5.45;4.05;;;2.10;99.90;;;;;;5069867;28;20181;-76
2021/01/14 09:11:29;;;;;;;4.22;3.42;;;2.10;99.90;;;;;;5064948;28;20598;-75
2021/01/14 09:14:09;;;;;;;4.28;3.10;;;2.10;99.90;;;;;;5059043;28;20591;-76
2021/01/14 09:16:36;;;;;;;4.40;3.80;;;2.20;99.90;;;;;;5057207;28;20198;-76
2021/01/14 09:19:15;;;;;;;4.45;3.65;;;2.20;99.90;;;;;;5074199;28;20182;-75
2021/01/14 09:21:40;;;;;;;3.85;3.45;;;2.20;99.90;;;;;;5072712;28;20186;-75
2021/01/14 09:24:10;;;;;;;4.83;3.17;;;2.20;99.90;;;;;;5068596;28;20236;-76
2021/01/14 09:26:40;;;;;;;4.03;3.08;;;2.20;99.90;;;;;;5072892;28;20460;-77
2021/01/14 09:29:07;;;;;;;3.90;3.50;;;2.20;99.90;;;;;;5071239;28;20548;-75
2021/01/14 09:31:36;;;;;;;4.00;2.92;;;2.30;99.90;;;;;;5069515;28;20178;-75
2021/01/14 09:34:02;;;;;;;4.05;3.50;;;2.30;99.90;;;;;;5073371;28;20217;-75
2021/01/14 09:36:29;;;;;;;6.20;4.13;;;2.30;99.90;;;;;;5073099;28;20579;-75
2021/01/14 09:38:59;;;;;;;3.97;3.58;;;2.30;99.90;;;;;;5061307;28;20201;-76
2021/01/14 09:41:31;;;;;;;5.65;3.75;;;2.30;99.90;;;;;;5069675;28;20184;-76
2021/01/14 09:44:11;;;;;;;5.57;3.33;;;2.30;99.90;;;;;;5069352;28;20190;-75
2021/01/14 09:46:39;;;;;;;3.63;2.80;;;2.30;99.90;;;;;;5070446;28;20196;-76
2021/01/14 09:49:11;;;;;;;4.97;4.45;;;2.40;99.90;;;;;;5072715;28;20170;-75
2021/01/14 09:51:37;;;;;;;3.90;3.42;;;2.40;99.90;;;;;;5076248;28;20243;-76
2021/01/14 09:54:04;;;;;;;6.45;3.92;;;2.40;99.90;;;;;;5070443;28;20235;-76
2021/01/14 09:56:36;;;;;;;7.65;4.55;;;2.40;99.90;;;;;;5070835;28;20189;-76
2021/01/14 09:59:24;;;;;;;5.90;3.85;;;2.40;99.90;;;;;;5068317;28;20243;-77
2021/01/14 10:01:56;;;;;;;7.30;4.35;;;2.40;99.90;;;;;;5064846;28;20227;-74
2021/01/14 10:04:24;;;;;;;5.57;4.22;;;2.40;99.90;;;;;;5069526;28;20178;-74
2021/01/14 10:07:06;;;;;;;5.05;4.55;;;2.40;99.90;;;;;;5089166;28;20181;-73
2021/01/14 10:09:35;;;;;;;4.82;4.38;;;2.40;99.90;;;;;;5066554;28;20303;-73
2021/01/14 10:12:03;;;;;;;5.10;4.38;;;2.40;99.90;;;;;;5059920;28;20252;-73
2021/01/14 10:14:29;;;;;;;8.25;5.00;;;2.40;99.90;;;;;;5067778;28;20174;-73
2021/01/14 10:16:54;;;;;;;5.93;3.90;;;2.50;99.90;;;;;;5068700;28;20210;-79
2021/01/14 10:19:20;;;;;;;4.60;4.07;;;2.40;99.90;;;;;;5068304;28;20182;-73
2021/01/14 10:21:47;;;;;;;4.70;3.93;;;2.40;99.90;;;;;;5057042;28;20193;-73
2021/01/14 10:24:29;;;;;;;5.93;4.20;;;2.50;99.90;;;;;;5065427;28;20471;-74
2021/01/14 10:27:10;;;;;;;9.85;4.28;;;2.50;99.90;;;;;;5059710;28;20193;-73
2021/01/14 10:29:38;;;;;;;2.72;2.53;;;2.50;99.90;;;;;;5067847;28;20234;-74
2021/01/14 10:32:23;;;;;;;4.88;3.95;;;2.50;99.90;;;;;;5064090;28;20182;-73
2021/01/14 10:34:51;;;;;;;3.38;3.00;;;2.50;99.90;;;;;;5083633;28;20230;-73
2021/01/14 10:37:27;;;;;;;4.60;3.80;;;2.50;99.90;;;;;;5092943;28;20205;-73
2021/01/14 10:40:01;;;;;;;4.75;3.10;;;2.50;99.90;;;;;;5065900;28;20181;-73
2021/01/14 10:42:38;;;;;;;3.33;2.88;;;2.50;99.90;;;;;;5072486;28;20186;-74
2021/01/14 10:45:05;;;;;;;5.78;3.72;;;2.50;99.90;;;;;;5069138;28;20191;-74
2021/01/14 10:47:31;;;;;;;2.70;2.33;;;2.50;99.90;;;;;;5072480;28;20205;-74
2021/01/14 10:49:57;;;;;;;3.70;3.00;;;2.60;99.90;;;;;;5068134;28;20658;-73
2021/01/14 10:52:22;;;;;;;3.50;3.20;;;2.60;99.90;;;;;;5065261;28;20189;-73
2021/01/14 10:55:15;;;;;;;3.73;2.77;;;2.60;99.90;;;;;;5070597;28;20432;-73
2021/01/14 10:57:55;;;;;;;3.28;2.92;;;2.70;99.90;;;;;;5062119;28;20269;-74
2021/01/14 11:00:22;;;;;;;4.43;3.45;;;2.70;99.90;;;;;;5052970;28;20787;-74
2021/01/14 11:02:59;;;;;;;3.60;2.60;;;2.70;99.90;;;;;;5064380;28;20201;-73
2021/01/14 11:05:59;;;;;;;5.13;4.15;;;2.70;99.90;;;;;;5064343;28;20661;-73
2021/01/14 11:08:38;;;;;;;4.70;3.55;;;2.70;99.90;;;;;;5072401;28;20545;-73
2021/01/14 11:11:08;;;;;;;4.57;3.90;;;2.80;99.90;;;;;;5056800;28;20193;-73
2021/01/14 11:13:38;;;;;;;7.38;4.25;;;2.80;99.90;;;;;;5064760;28;20178;-73
2021/01/14 11:16:05;;;;;;;5.35;3.53;;;2.90;99.90;;;;;;5072301;28;20239;-73
2021/01/14 11:18:30;;;;;;;3.88;3.40;;;2.90;99.90;;;;;;5059284;28;20245;-73
2021/01/14 11:20:56;;;;;;;6.73;4.20;;;2.90;99.90;;;;;;5070387;28;20178;-73
2021/01/14 11:23:22;;;;;;;4.73;4.20;;;2.90;99.90;;;;;;5066636;28;20311;-73
2021/01/14 11:25:47;;;;;;;5.00;3.83;;;3.00;99.90;;;;;;5061731;28;20188;-73
2021/01/14 11:28:13;;;;;;;5.87;4.60;;;3.00;99.90;;;;;;5064413;28;20688;-74
2021/01/14 11:30:38;;;;;;;6.53;4.87;;;3.00;99.90;;;;;;5066765;28;20181;-73
2021/01/14 11:33:04;;;;;;;5.83;4.33;;;3.10;99.90;;;;;;5067030;28;20576;-73
2021/01/14 11:35:29;;;;;;;5.23;4.03;;;3.00;99.90;;;;;;5081389;28;20219;-73
2021/01/14 11:37:55;;;;;;;5.80;4.13;;;3.10;99.90;;;;;;5084494;28;20263;-74
2021/01/14 11:40:20;;;;;;;3.83;3.53;;;3.10;99.90;;;;;;5066411;28;20193;-73
2021/01/14 11:42:46;;;;;;;3.60;3.30;;;3.10;99.90;;;;;;5060809;28;20187;-73
2021/01/14 11:45:11;;;;;;;4.60;3.80;;;3.20;99.90;;;;;;5065507;28;20190;-74
2021/01/14 11:47:37;;;;;;;4.00;2.80;;;3.20;99.90;;;;;;5082949;28;20201;-74
2021/01/14 11:50:03;;;;;;;6.00;3.90;;;3.30;99.90;;;;;;5080504;28;20599;-73
2021/01/14 11:52:29;;;;;;;4.40;3.75;;;3.30;99.90;;;;;;5086646;28;20605;-74
2021/01/14 11:54:54;;;;;;;4.90;4.27;;;3.30;99.90;;;;;;5069417;28;20174;-73
2021/01/14 11:57:20;;;;;;;4.00;3.23;;;3.30;99.90;;;;;;5062449;28;20271;-73
2021/01/14 11:59:45;;;;;;;5.47;3.70;;;3.30;99.90;;;;;;5069803;28;20673;-74
2021/01/14 12:02:11;;;;;;;4.03;3.20;;;3.30;99.90;;;;;;5070872;28;20694;-74
2021/01/14 12:04:37;;;;;;;5.63;3.70;;;3.30;99.90;;;;;;5063560;28;20222;-73
2021/01/14 12:07:02;;;;;;;3.83;3.00;;;3.30;99.90;;;;;;5073003;28;20466;-74
2021/01/14 12:09:28;;;;;;;4.03;3.23;;;3.20;99.90;;;;;;5070538;28;20261;-73
2021/01/14 12:11:54;;;;;;;6.53;3.80;;;3.20;99.90;;;;;;5071793;28;20567;-73
2021/01/14 12:14:20;;;;;;;3.30;2.92;;;3.10;99.90;;;;;;5074415;28;20518;-73
2021/01/14 12:16:46;;;;;;;4.03;3.60;;;3.10;99.90;;;;;;5071715;28;20213;-73
2021/01/14 12:19:11;;;;;;;4.97;4.17;;;3.10;99.90;;;;;;5074946;28;20642;-74
2021/01/14 12:21:37;;;;;;;6.27;4.33;;;3.00;99.90;;;;;;5059648;28;20194;-73
2021/01/14 12:24:02;;;;;;;5.93;4.30;;;3.00;99.90;;;;;;5066143;28;20182;-73
2021/01/14 12:26:28;;;;;;;6.00;5.30;;;3.00;99.90;;;;;;5073407;28;20261;-73
2021/01/14 12:28:53;;;;;;;7.60;5.67;;;3.00;99.90;;;;;;5063025;28;20650;-73
2021/01/14 12:31:19;;;;;;;12.63;11.33;;;2.90;99.90;;;;;;5075044;28;20182;-74
2021/01/14 12:33:44;;;;;;;10.97;8.80;;;2.90;99.90;;;;;;5069781;28;20646;-74
2021/01/14 12:36:10;;;;;;;9.97;7.27;;;2.80;99.90;;;;;;5074415;28;20265;-75
2021/01/14 12:38:35;;;;;;;9.60;6.40;;;2.80;99.90;;;;;;5070575;28;20328;-74
2021/01/14 12:41:01;;;;;;;8.60;6.87;;;2.70;99.90;;;;;;5069748;28;20895;-74
2021/01/14 12:43:26;;;;;;;7.50;5.60;;;2.70;99.90;;;;;;5071928;28;20178;-75
2021/01/14 12:45:52;;;;;;;19.57;15.43;;;2.60;99.90;;;;;;5063718;28;20264;-74
2021/01/14 12:48:21;;;;;;;15.90;11.83;;;2.60;99.90;;;;;;5064785;28;20239;-75
2021/01/14 12:50:46;;;;;;;13.85;12.48;;;2.60;99.90;;;;;;5064969;28;20228;-74
2021/01/14 12:53:12;;;;;;;10.60;9.30;;;2.50;99.90;;;;;;5062665;28;20634;-76
2021/01/14 12:55:37;;;;;;;11.83;7.90;;;2.50;99.90;;;;;;5060042;28;20586;-74
2021/01/14 12:58:04;;;;;;;9.33;6.00;;;2.50;99.90;;;;;;5071624;28;20229;-73
2021/01/14 13:00:30;;;;;;;8.20;5.40;;;2.50;99.90;;;;;;5072807;28;20325;-74
2021/01/14 13:02:56;;;;;;;4.63;4.03;;;2.40;99.90;;;;;;5066846;28;20289;-74
2021/01/14 13:05:21;;;;;;;8.17;5.13;;;2.30;99.90;;;;;;5070105;28;20447;-74
2021/01/14 13:07:46;;;;;;;4.27;3.83;;;2.30;99.90;;;;;;5073024;28;20227;-74
2021/01/14 13:10:12;;;;;;;4.37;3.97;;;2.30;99.90;;;;;;5068729;28;20224;-73